createdAt,value
2019-03-05T00:00:39.179Z,79.43
2019-03-05T00:03:07.667Z,79.07
2019-03-05T00:05:36.134Z,79.05
2019-03-05T00:08:04.667Z,78.81
2019-03-05T00:10:33.168Z,78.65
2019-03-05T00:13:01.553Z,78.82
2019-03-05T00:15:31.150Z,79.58
2019-03-05T00:17:59.570Z,79.41
2019-03-05T00:20:28.052Z,78.89
2019-03-05T00:22:56.440Z,78.88
2019-03-05T00:25:27.895Z,78.48
2019-03-05T00:27:59.338Z,78.92
2019-03-05T00:30:33.359Z,79.04
2019-03-05T00:33:16.652Z,78.97
2019-03-05T00:36:04.928Z,78.68
2019-03-05T00:38:51.331Z,78.60
2019-03-05T00:41:39.524Z,78.99
2019-03-05T00:44:27.209Z,78.75
2019-03-05T00:47:13.606Z,79.00
2019-03-05T00:50:01.363Z,78.65
2019-03-05T00:52:56.804Z,78.51
2019-03-05T00:55:28.247Z,78.03
2019-03-05T00:57:59.697Z,78.60
2019-03-05T01:00:59.835Z,78.04
2019-03-05T01:03:43.111Z,78.10
2019-03-05T01:06:25.386Z,78.51
2019-03-05T01:08:56.134Z,78.15
2019-03-05T01:11:25.660Z,78.55
2019-03-05T01:13:54.285Z,78.50
2019-03-05T01:16:31.002Z,78.54
2019-03-05T01:18:59.384Z,78.16
2019-03-05T01:21:27.926Z,77.84
2019-03-05T01:23:56.343Z,77.62
2019-03-05T01:26:24.879Z,77.18
2019-03-05T01:28:53.275Z,77.28
2019-03-05T01:31:23.505Z,76.72
2019-03-05T01:34:08.845Z,75.96
2019-03-05T01:36:38.913Z,76.29
2019-03-05T01:39:26.473Z,75.97
2019-03-05T01:41:55.004Z,75.51
2019-03-05T01:44:23.364Z,75.24
2019-03-05T01:46:51.923Z,75.94
2019-03-05T01:49:20.312Z,75.83
2019-03-05T01:51:48.720Z,76.36
2019-03-05T01:54:17.120Z,76.57
2019-03-05T01:56:45.579Z,76.74
2019-03-05T01:59:13.977Z,77.57
2019-03-05T02:01:42.449Z,77.66
2019-03-05T02:04:10.919Z,77.96
2019-03-05T02:06:39.431Z,78.42
2019-03-05T02:09:08.953Z,78.57
2019-03-05T02:11:37.427Z,78.93
2019-03-05T02:14:05.981Z,79.48
2019-03-05T02:16:34.461Z,79.67
2019-03-05T02:19:34.166Z,79.80
2019-03-05T02:22:02.565Z,80.05
2019-03-05T02:25:02.765Z,80.00
2019-03-05T02:27:40.262Z,80.63
2019-03-05T02:30:17.580Z,80.46
2019-03-05T02:33:06.947Z,80.65
2019-03-05T02:35:44.064Z,80.46
2019-03-05T02:38:27.261Z,80.39
2019-03-05T02:41:04.589Z,80.27
2019-03-05T02:43:44.807Z,80.31
2019-03-05T02:46:31.409Z,80.58
2019-03-05T02:49:11.864Z,80.40
2019-03-05T02:51:55.282Z,80.52
2019-03-05T02:54:35.750Z,80.45
2019-03-05T02:57:09.495Z,80.65
2019-03-05T02:59:38.420Z,80.40
2019-03-05T03:02:24.156Z,80.45
2019-03-05T03:05:00.028Z,80.02
2019-03-05T03:07:29.398Z,80.41
2019-03-05T03:10:21.499Z,80.39
2019-03-05T03:12:50.046Z,80.38
2019-03-05T03:15:18.683Z,80.20
2019-03-05T03:17:47.443Z,79.81
2019-03-05T03:20:16.597Z,80.02
2019-03-05T03:22:44.981Z,80.19
2019-03-05T03:25:17.814Z,80.05
2019-03-05T03:27:46.318Z,80.15
2019-03-05T03:30:16.851Z,80.46
2019-03-05T03:32:45.350Z,80.32
2019-03-05T03:35:15.374Z,80.20
2019-03-05T03:37:43.935Z,80.41
2019-03-05T03:40:15.242Z,80.66
2019-03-05T03:42:43.774Z,80.86
2019-03-05T03:45:17.743Z,80.49
2019-03-05T03:47:46.193Z,80.62
2019-03-05T03:50:14.756Z,80.68
2019-03-05T03:52:43.215Z,80.53
2019-03-05T03:55:14.033Z,80.49
2019-03-05T03:57:42.683Z,80.43
2019-03-05T04:00:14.363Z,80.36
2019-03-05T04:02:42.923Z,80.49
2019-03-05T04:05:11.452Z,80.45
2019-03-05T04:07:39.942Z,80.56
2019-03-05T04:10:11.072Z,80.86
2019-03-05T04:12:39.475Z,81.04
2019-03-05T04:15:11.726Z,81.29
2019-03-05T04:17:40.679Z,81.35
2019-03-05T04:20:12.006Z,81.60
2019-03-05T04:22:40.388Z,81.97
2019-03-05T04:25:09.929Z,82.29
2019-03-05T04:27:38.380Z,82.64
2019-03-05T04:30:14.476Z,83.01
2019-03-05T04:32:42.886Z,82.94
2019-03-05T04:35:14.217Z,83.12
2019-03-05T04:37:42.599Z,83.18
2019-03-05T04:40:11.835Z,83.16
2019-03-05T04:42:40.258Z,83.07
2019-03-05T04:45:32.723Z,82.97
2019-03-05T04:48:01.144Z,83.04
2019-03-05T04:50:47.425Z,83.24
2019-03-05T04:53:15.840Z,82.92
2019-03-05T04:55:44.224Z,82.78
2019-03-05T04:58:12.645Z,82.40
2019-03-05T05:00:41.039Z,82.52
2019-03-05T05:03:09.460Z,82.54
2019-03-05T05:05:37.859Z,82.01
2019-03-05T05:08:06.337Z,81.68
2019-03-05T05:10:34.769Z,81.48
2019-03-05T05:13:03.205Z,81.26
2019-03-05T05:15:33.623Z,81.08
2019-03-05T05:18:02.453Z,81.19
2019-03-05T05:20:30.950Z,80.63
2019-03-05T05:22:59.413Z,80.41
2019-03-05T05:25:27.805Z,80.80
2019-03-05T05:27:56.493Z,80.21
2019-03-05T05:30:30.229Z,79.82
2019-03-05T05:32:58.628Z,79.58
2019-03-05T05:35:27.117Z,79.98
2019-03-05T05:37:55.572Z,79.64
2019-03-05T05:40:26.424Z,79.58
2019-03-05T05:42:54.966Z,79.48
2019-03-05T05:45:26.495Z,79.67
2019-03-05T05:47:54.917Z,80.08
2019-03-05T05:50:23.304Z,80.29
2019-03-05T05:52:51.726Z,80.63
2019-03-05T05:55:20.154Z,80.80
2019-03-05T05:57:48.618Z,81.50
2019-03-05T06:00:17.653Z,82.26
2019-03-05T06:02:46.046Z,82.44
2019-03-05T06:05:14.526Z,82.65
2019-03-05T06:07:42.949Z,83.19
2019-03-05T06:10:12.994Z,83.86
2019-03-05T06:12:41.426Z,84.39
2019-03-05T06:15:17.220Z,84.96
2019-03-05T06:17:45.714Z,85.49
2019-03-05T06:20:16.393Z,85.72
2019-03-05T06:22:44.798Z,86.40
2019-03-05T06:25:17.236Z,86.68
2019-03-05T06:27:45.662Z,87.21
2019-03-05T06:30:17.893Z,87.64
2019-03-05T06:32:46.434Z,87.79
2019-03-05T06:35:14.971Z,88.25
2019-03-05T06:37:43.384Z,88.61
2019-03-05T06:40:17.569Z,89.09
2019-03-05T06:42:45.975Z,88.84
2019-03-05T06:45:16.534Z,89.08
2019-03-05T06:47:44.933Z,88.60
2019-03-05T06:50:18.486Z,88.72
2019-03-05T06:52:46.969Z,89.13
2019-03-05T06:55:16.431Z,88.84
2019-03-05T06:57:44.975Z,88.68
2019-03-05T07:00:21.245Z,88.96
2019-03-05T07:02:49.749Z,89.20
2019-03-05T07:05:55.041Z,89.34
2019-03-05T07:08:23.462Z,89.79
2019-03-05T07:11:11.522Z,90.66
2019-03-05T07:13:39.950Z,91.16
2019-03-05T07:16:11.424Z,91.86
2019-03-05T07:18:42.799Z,92.03
2019-03-05T07:21:42.724Z,92.43
2019-03-05T07:24:17.067Z,92.43
2019-03-05T07:26:45.464Z,92.78
2019-03-05T07:29:13.896Z,92.71
2019-03-05T07:31:42.319Z,92.52
2019-03-05T07:34:12.358Z,92.76
2019-03-05T07:36:40.838Z,92.84
2019-03-05T07:39:12.463Z,92.87
2019-03-05T07:41:40.841Z,92.69
2019-03-05T07:44:09.259Z,92.38
2019-03-05T07:46:37.709Z,92.29
2019-03-05T07:49:06.125Z,92.44
2019-03-05T07:51:34.533Z,92.38
2019-03-05T07:54:02.997Z,92.15
2019-03-05T07:56:31.476Z,92.25
2019-03-05T07:58:59.862Z,92.27
2019-03-05T08:01:28.263Z,92.58
2019-03-05T08:03:56.737Z,92.79
2019-03-05T08:06:25.126Z,93.35
2019-03-05T08:09:30.186Z,93.15
2019-03-05T08:12:07.461Z,92.82
2019-03-05T08:14:56.156Z,93.15
2019-03-05T08:17:25.707Z,93.17
2019-03-05T08:19:54.237Z,92.94
2019-03-05T08:22:22.783Z,92.65
2019-03-05T08:24:51.228Z,92.57
2019-03-05T08:27:19.642Z,92.82
2019-03-05T08:29:48.177Z,92.84
2019-03-05T08:32:16.625Z,92.80
2019-03-05T08:34:45.102Z,92.83
2019-03-05T08:37:13.701Z,92.72
2019-03-05T08:39:42.174Z,92.68
2019-03-05T08:42:10.594Z,92.54
2019-03-05T08:44:49.636Z,92.40
2019-03-05T08:47:09.287Z,92.19
2019-03-05T08:49:37.674Z,92.36
2019-03-05T08:52:06.204Z,92.03
2019-03-05T08:54:34.640Z,92.23
2019-03-05T08:57:03.037Z,92.09
2019-03-05T08:59:32.666Z,91.79
2019-03-05T09:02:01.419Z,92.14
2019-03-05T09:04:29.778Z,91.80
2019-03-05T09:06:58.262Z,91.96
2019-03-05T09:09:26.727Z,92.08
2019-03-05T09:11:55.517Z,91.95
2019-03-05T09:14:23.944Z,91.56
2019-03-05T09:16:52.357Z,91.73
2019-03-05T09:19:20.888Z,91.54
2019-03-05T09:21:49.488Z,91.70
2019-03-05T09:24:17.841Z,91.18
2019-03-05T09:26:51.335Z,91.14
2019-03-05T09:29:16.632Z,91.07
2019-03-05T09:31:45.108Z,90.16
2019-03-05T09:34:13.517Z,90.38
2019-03-05T09:36:50.390Z,90.67
2019-03-05T09:39:13.112Z,90.66
2019-03-05T09:41:41.611Z,91.04
2019-03-05T09:44:10.001Z,90.43
2019-03-05T09:46:38.413Z,90.46
2019-03-05T09:49:06.801Z,90.11
2019-03-05T09:51:35.269Z,90.09
2019-03-05T09:54:03.823Z,90.14
2019-03-05T09:56:32.252Z,89.10
2019-03-05T09:59:00.718Z,88.72
2019-03-05T10:01:29.262Z,88.24
2019-03-05T10:03:57.723Z,86.76
2019-03-05T10:06:26.140Z,87.26
2019-03-05T10:08:54.572Z,86.29
2019-03-05T10:11:23.420Z,86.85
2019-03-05T10:13:51.861Z,85.85
2019-03-05T10:16:20.422Z,86.17
2019-03-05T10:18:48.864Z,86.29
2019-03-05T10:21:17.399Z,86.28
2019-03-05T10:23:46.620Z,86.14
2019-03-05T10:26:15.203Z,85.62
2019-03-05T10:28:43.662Z,84.78
2019-03-05T10:31:12.520Z,84.31
2019-03-05T10:33:40.994Z,82.95
2019-03-05T10:36:09.397Z,82.81
2019-03-05T10:38:37.951Z,83.14
2019-03-05T10:41:06.447Z,82.62
2019-03-05T10:43:35.084Z,83.20
2019-03-05T10:46:03.539Z,81.80
2019-03-05T10:48:31.955Z,80.75
2019-03-05T10:51:00.415Z,80.30
2019-03-05T10:53:29.236Z,79.26
2019-03-05T10:55:57.616Z,78.72
2019-03-05T10:58:33.972Z,77.97
2019-03-05T11:00:56.820Z,77.94
2019-03-05T11:03:29.513Z,78.50
2019-03-05T11:05:58.063Z,75.57
2019-03-05T11:08:27.101Z,74.86
2019-03-05T11:10:57.035Z,74.18
2019-03-05T11:13:25.553Z,75.15
2019-03-05T11:16:01.440Z,74.84
2019-03-05T11:18:30.228Z,75.22
2019-03-05T11:20:58.888Z,75.27
2019-03-05T11:23:27.302Z,75.36
2019-03-05T11:25:55.781Z,76.47
2019-03-05T11:28:24.246Z,76.86
2019-03-05T11:30:52.812Z,77.34
2019-03-05T11:33:21.339Z,77.63
2019-03-05T11:35:50.105Z,77.76
2019-03-05T11:38:18.753Z,77.53
2019-03-05T11:40:47.250Z,76.62
2019-03-05T11:43:17.268Z,76.55
2019-03-05T11:45:46.199Z,76.90
2019-03-05T11:48:15.970Z,75.29
2019-03-05T11:50:44.901Z,75.14
2019-03-05T11:53:13.471Z,75.30
2019-03-05T11:55:42.017Z,75.12
2019-03-05T11:58:10.438Z,74.01
2019-03-05T12:00:58.904Z,73.54
2019-03-05T12:03:27.445Z,72.30
2019-03-05T12:05:55.848Z,72.40
2019-03-05T12:08:24.312Z,72.56
2019-03-05T12:10:52.786Z,74.13
2019-03-05T12:13:21.247Z,74.88
2019-03-05T12:15:49.722Z,74.83
2019-03-05T12:18:18.187Z,75.24
2019-03-05T12:20:46.678Z,75.78
2019-03-05T12:23:15.072Z,76.40
2019-03-05T12:25:43.626Z,77.06
2019-03-05T12:28:12.046Z,80.09
2019-03-05T12:30:40.562Z,82.65
2019-03-05T12:33:09.276Z,83.42
2019-03-05T12:35:37.762Z,84.42
2019-03-05T12:38:06.246Z,83.85
2019-03-05T12:40:34.705Z,84.50
2019-03-05T12:43:03.276Z,80.99
2019-03-05T12:45:31.742Z,80.15
2019-03-05T12:48:00.324Z,79.17
2019-03-05T12:50:33.781Z,78.82
2019-03-05T12:53:02.338Z,78.69
2019-03-05T12:55:30.860Z,77.43
2019-03-05T12:57:59.321Z,77.54
2019-03-05T13:00:29.891Z,78.90
2019-03-05T13:02:58.452Z,77.79
2019-03-05T13:05:26.935Z,77.75
2019-03-05T13:07:56.391Z,76.19
2019-03-05T13:10:27.164Z,75.24
2019-03-05T13:12:55.804Z,75.38
2019-03-05T13:15:32.713Z,75.40
2019-03-05T13:18:01.224Z,74.28
2019-03-05T13:20:29.695Z,72.61
2019-03-05T13:22:58.229Z,72.31
2019-03-05T13:25:28.490Z,70.61
2019-03-05T13:27:57.617Z,69.85
2019-03-05T13:30:28.432Z,69.50
2019-03-05T13:32:59.062Z,71.39
2019-03-05T13:35:30.503Z,71.50
2019-03-05T13:38:03.240Z,71.55
2019-03-05T13:40:34.199Z,70.74
2019-03-05T13:43:03.352Z,72.12
2019-03-05T13:45:31.759Z,74.00
2019-03-05T13:48:06.231Z,73.53
2019-03-05T13:50:54.004Z,73.61
2019-03-05T13:53:40.386Z,71.96
2019-03-05T13:56:43.996Z,72.69
2019-03-05T13:59:24.415Z,72.17
2019-03-05T14:01:53.174Z,71.81
2019-03-05T14:04:36.533Z,69.61
2019-03-05T14:07:36.554Z,67.12
2019-03-05T14:10:06.125Z,66.19
2019-03-05T14:12:34.603Z,67.03
2019-03-05T14:15:03.175Z,66.59
2019-03-05T14:17:32.335Z,67.64
2019-03-05T14:20:00.810Z,68.39
2019-03-05T14:22:29.345Z,66.59
2019-03-05T14:25:02.300Z,66.77
2019-03-05T14:27:27.904Z,68.94
2019-03-05T14:29:56.330Z,67.54
2019-03-05T14:32:24.892Z,66.86
2019-03-05T14:34:56.330Z,67.99
2019-03-05T14:37:25.374Z,68.71
2019-03-05T14:39:53.952Z,68.68
2019-03-05T14:42:22.421Z,69.41
2019-03-05T14:44:50.861Z,69.17
2019-03-05T14:47:19.428Z,69.14
2019-03-05T14:49:47.817Z,69.20
2019-03-05T14:52:18.935Z,69.17
2019-03-05T14:54:47.372Z,67.26
2019-03-05T14:57:15.830Z,65.61
2019-03-05T14:59:44.298Z,65.98
2019-03-05T15:02:12.807Z,66.36
2019-03-05T15:04:41.255Z,67.37
2019-03-05T15:07:09.732Z,67.54
2019-03-05T15:09:38.147Z,67.09
2019-03-05T15:12:06.592Z,67.33
2019-03-05T15:14:34.968Z,67.23
2019-03-05T15:17:03.478Z,65.50
2019-03-05T15:19:34.655Z,64.41
2019-03-05T15:22:02.932Z,64.71
2019-03-05T15:24:31.371Z,65.20
2019-03-05T15:26:59.785Z,63.14
2019-03-05T15:29:28.373Z,62.64
2019-03-05T15:31:56.834Z,62.41
2019-03-05T15:34:25.188Z,62.63
2019-03-05T15:36:53.751Z,62.17
2019-03-05T15:39:22.241Z,63.47
2019-03-05T15:41:50.659Z,62.70
2019-03-05T15:44:19.124Z,62.94
2019-03-05T15:46:47.558Z,63.21
2019-03-05T15:49:15.958Z,62.94
2019-03-05T15:51:44.364Z,63.14
2019-03-05T15:54:12.862Z,62.51
2019-03-05T15:56:41.298Z,60.57
2019-03-05T15:59:09.719Z,60.57
2019-03-05T16:01:38.094Z,60.44
2019-03-05T16:04:06.502Z,62.10
2019-03-05T16:06:35.344Z,60.82
2019-03-05T16:09:05.304Z,61.08
2019-03-05T16:11:35.059Z,60.23
2019-03-05T16:14:03.650Z,60.72
2019-03-05T16:16:32.289Z,60.97
2019-03-05T16:19:00.689Z,60.06
2019-03-05T16:21:29.113Z,60.36
2019-03-05T16:24:01.759Z,60.84
2019-03-05T16:26:27.871Z,60.28
2019-03-05T16:28:56.345Z,60.33
2019-03-05T16:31:32.733Z,60.83
2019-03-05T16:34:09.497Z,60.55
2019-03-05T16:36:52.688Z,60.87
2019-03-05T16:39:37.879Z,60.60
2019-03-05T16:42:08.088Z,60.93
2019-03-05T16:44:50.297Z,61.76
2019-03-05T16:47:26.808Z,62.57
2019-03-05T16:49:59.432Z,62.21
2019-03-05T16:52:35.777Z,63.11
2019-03-05T16:55:13.951Z,63.32
2019-03-05T16:57:44.055Z,64.01
2019-03-05T17:00:26.343Z,63.89
2019-03-05T17:03:05.678Z,64.16
2019-03-05T17:05:52.183Z,64.18
2019-03-05T17:08:24.934Z,64.51
2019-03-05T17:11:11.550Z,64.93
2019-03-05T17:13:39.950Z,64.77
2019-03-05T17:16:08.522Z,65.19
2019-03-05T17:18:37.094Z,65.36
2019-03-05T17:21:05.488Z,65.94
2019-03-05T17:23:33.974Z,65.84
2019-03-05T17:26:02.448Z,65.62
2019-03-05T17:28:30.866Z,65.77
2019-03-05T17:30:59.589Z,66.23
2019-03-05T17:33:28.014Z,66.70
2019-03-05T17:35:56.492Z,66.59
2019-03-05T17:38:25.054Z,67.18
2019-03-05T17:40:53.456Z,67.18
2019-03-05T17:43:22.044Z,67.17
2019-03-05T17:45:50.472Z,67.06
2019-03-05T17:48:18.910Z,67.94
2019-03-05T17:50:47.344Z,67.84
2019-03-05T17:53:15.751Z,68.54
2019-03-05T17:55:44.450Z,69.19
2019-03-05T17:58:12.861Z,68.82
2019-03-05T18:00:42.970Z,67.99
2019-03-05T18:03:11.393Z,68.25
2019-03-05T18:05:39.801Z,68.68
2019-03-05T18:08:08.524Z,69.55
2019-03-05T18:10:36.930Z,69.17
2019-03-05T18:13:05.394Z,69.19
2019-03-05T18:15:33.816Z,68.96
2019-03-05T18:18:02.370Z,69.07
2019-03-05T18:20:31.038Z,69.74
2019-03-05T18:22:59.427Z,69.90
2019-03-05T18:25:27.835Z,69.76
2019-03-05T18:27:56.350Z,70.15
2019-03-05T18:30:29.982Z,70.13
2019-03-05T18:32:58.509Z,70.81
2019-03-05T18:35:26.993Z,70.68
2019-03-05T18:37:55.573Z,70.58
2019-03-05T18:40:24.944Z,70.70
2019-03-05T18:42:53.857Z,70.37
2019-03-05T18:45:30.037Z,70.57
2019-03-05T18:47:58.637Z,70.43
2019-03-05T18:50:27.140Z,70.69
2019-03-05T18:52:59.909Z,70.92
2019-03-05T18:55:28.764Z,71.16
2019-03-05T18:57:57.331Z,71.23
2019-03-05T19:00:30.824Z,71.43
2019-03-05T19:03:05.156Z,71.76
2019-03-05T19:05:33.649Z,71.71
2019-03-05T19:08:02.069Z,72.01
2019-03-05T19:10:30.625Z,72.83
2019-03-05T19:12:59.121Z,73.73
2019-03-05T19:15:28.972Z,74.37
2019-03-05T19:17:57.466Z,74.53
2019-03-05T19:20:30.573Z,74.50
2019-03-05T19:22:59.972Z,74.41
2019-03-05T19:25:43.109Z,74.64
2019-03-05T19:28:11.793Z,75.25
2019-03-05T19:30:42.618Z,75.36
2019-03-05T19:33:11.058Z,75.88
2019-03-05T19:35:39.593Z,76.02
2019-03-05T19:38:08.178Z,76.08
2019-03-05T19:40:40.940Z,76.97
2019-03-05T19:43:09.420Z,76.93
2019-03-05T19:45:37.893Z,76.76
2019-03-05T19:48:06.646Z,76.58
2019-03-05T19:50:35.211Z,77.13
2019-03-05T19:53:05.466Z,77.20
2019-03-05T19:55:33.942Z,77.67
2019-03-05T19:58:09.070Z,77.54
2019-03-05T20:00:44.594Z,77.96
2019-03-05T20:03:13.097Z,78.15
2019-03-05T20:05:41.655Z,78.62
2019-03-05T20:08:10.063Z,78.57
2019-03-05T20:10:39.121Z,78.54
2019-03-05T20:13:07.576Z,78.66
2019-03-05T20:15:36.096Z,79.10
2019-03-05T20:18:04.628Z,79.52
2019-03-05T20:20:33.132Z,79.38
2019-03-05T20:23:01.544Z,79.78
2019-03-05T20:25:30.896Z,79.90
2019-03-05T20:27:59.320Z,80.02
2019-03-05T20:30:28.566Z,80.29
2019-03-05T20:32:57.037Z,80.63
2019-03-05T20:35:25.677Z,80.71
2019-03-05T20:37:54.098Z,80.79
2019-03-05T20:40:28.475Z,81.13
2019-03-05T20:42:57.062Z,81.08
2019-03-05T20:45:39.534Z,81.43
2019-03-05T20:48:08.022Z,81.53
2019-03-05T20:50:36.576Z,81.44
2019-03-05T20:53:05.229Z,81.56
2019-03-05T20:55:33.729Z,80.85
2019-03-05T20:58:02.210Z,81.43
2019-03-05T21:00:32.362Z,81.45
2019-03-05T21:03:02.649Z,81.46
2019-03-05T21:05:34.395Z,81.60
2019-03-05T21:10:51.292Z,81.87
2019-03-05T21:13:19.871Z,81.78
2019-03-05T21:15:48.288Z,81.82
2019-03-05T21:18:19.794Z,81.96
2019-03-05T21:20:48.255Z,81.61
2019-03-05T21:23:16.913Z,81.22
2019-03-05T21:25:45.498Z,81.73
2019-03-05T21:28:13.980Z,81.50
2019-03-05T21:30:42.401Z,81.78
2019-03-05T21:33:10.823Z,81.44
2019-03-05T21:35:39.583Z,81.39
2019-03-05T21:41:04.383Z,81.64
2019-03-05T21:43:33.178Z,81.93
2019-03-05T21:46:04.635Z,81.67
2019-03-05T21:48:33.205Z,82.23
2019-03-05T21:51:01.907Z,82.13
2019-03-05T21:53:30.357Z,82.23
2019-03-05T21:55:58.897Z,82.28
2019-03-05T21:58:27.324Z,82.33
2019-03-05T22:00:55.806Z,82.36
2019-03-05T22:03:24.226Z,81.83
2019-03-05T22:05:52.666Z,82.28
2019-03-05T22:08:21.157Z,81.84
2019-03-05T22:10:51.498Z,81.74
2019-03-05T22:13:19.826Z,81.29
2019-03-05T22:15:48.250Z,81.60
2019-03-05T22:18:16.718Z,81.75
2019-03-05T22:20:45.373Z,81.75
2019-03-05T22:23:13.808Z,81.66
2019-03-05T22:25:42.226Z,81.73
2019-03-05T22:28:10.615Z,81.75
2019-03-05T22:30:39.683Z,82.04
2019-03-05T22:33:08.360Z,82.13
2019-03-05T22:35:36.849Z,82.21
2019-03-05T22:38:05.416Z,81.94
2019-03-05T22:40:33.921Z,81.95
2019-03-05T22:43:02.380Z,81.90
2019-03-05T22:45:32.612Z,81.79
2019-03-05T22:48:01.104Z,82.15
2019-03-05T22:50:29.565Z,82.13
2019-03-05T22:52:59.499Z,82.34
2019-03-05T22:55:28.059Z,82.11
2019-03-05T22:57:56.710Z,81.91
2019-03-05T23:00:46.597Z,82.01
2019-03-05T23:03:18.051Z,82.40
2019-03-05T23:05:46.463Z,82.23
2019-03-05T23:08:14.899Z,82.21
2019-03-05T23:10:43.343Z,82.15
2019-03-05T23:13:12.593Z,82.42
2019-03-05T23:15:41.093Z,82.42
2019-03-05T23:18:09.496Z,82.39
2019-03-05T23:20:38.041Z,82.33
2019-03-05T23:23:06.475Z,82.61
2019-03-05T23:25:34.936Z,82.49
2019-03-05T23:28:03.789Z,82.14
2019-03-05T23:30:32.314Z,82.43
2019-03-05T23:33:00.715Z,82.72
2019-03-05T23:35:29.134Z,82.84
2019-03-05T23:37:57.536Z,82.70
2019-03-05T23:40:25.921Z,82.69
2019-03-05T23:42:54.331Z,82.59
2019-03-05T23:45:22.891Z,82.75
2019-03-05T23:47:51.323Z,82.90
2019-03-05T23:50:19.727Z,82.89
2019-03-05T23:52:48.116Z,83.20
2019-03-05T23:55:17.484Z,83.33
2019-03-05T23:57:46.514Z,83.49
